createdAt,value
2019-06-20T00:00:10.571Z,23.25
2019-06-20T00:01:14.734Z,23.27
2019-06-20T00:02:18.348Z,23.18
2019-06-20T00:03:22.468Z,23.16
2019-06-20T00:04:26.064Z,23.05
2019-06-20T00:05:30.238Z,23.05
2019-06-20T00:06:33.757Z,23.02
2019-06-20T00:07:37.925Z,22.95
2019-06-20T00:08:41.457Z,22.99
2019-06-20T00:09:45.570Z,23.00
2019-06-20T00:10:49.454Z,22.96
2019-06-20T00:11:54.343Z,22.95
2019-06-20T00:13:00.811Z,22.93
2019-06-20T00:14:03.709Z,22.97
2019-06-20T00:15:07.396Z,22.93
2019-06-20T00:16:11.548Z,22.85
2019-06-20T00:17:15.142Z,22.94
2019-06-20T00:18:19.134Z,23.03
2019-06-20T00:19:22.665Z,22.94
2019-06-20T00:20:26.766Z,22.86
2019-06-20T00:21:30.296Z,22.79
2019-06-20T00:22:34.338Z,22.82
2019-06-20T00:23:37.862Z,22.84
2019-06-20T00:24:42.055Z,22.76
2019-06-20T00:25:45.630Z,22.68
2019-06-20T00:26:49.813Z,22.78
2019-06-20T00:27:53.229Z,22.78
2019-06-20T00:28:57.404Z,22.74
2019-06-20T00:30:01.003Z,22.65
2019-06-20T00:31:05.182Z,22.67
2019-06-20T00:32:08.710Z,22.57
2019-06-20T00:33:12.749Z,22.61
2019-06-20T00:34:16.310Z,22.75
2019-06-20T00:35:20.438Z,22.82
2019-06-20T00:36:23.892Z,22.93
2019-06-20T00:37:28.076Z,22.92
2019-06-20T00:38:31.606Z,22.89
2019-06-20T00:39:35.670Z,22.80
2019-06-20T00:40:39.305Z,22.67
2019-06-20T00:41:43.368Z,22.77
2019-06-20T00:42:46.876Z,22.88
2019-06-20T00:43:50.980Z,22.77
2019-06-20T00:44:54.584Z,22.68
2019-06-20T00:45:58.754Z,22.46
2019-06-20T00:47:02.164Z,22.43
2019-06-20T00:48:06.423Z,22.59
2019-06-20T00:49:10.983Z,22.62
2019-06-20T00:50:15.167Z,22.65
2019-06-20T00:51:18.659Z,22.66
2019-06-20T00:52:22.755Z,22.79
2019-06-20T00:53:26.223Z,22.68
2019-06-20T00:54:30.403Z,22.77
2019-06-20T00:55:33.956Z,22.72
2019-06-20T00:56:38.051Z,22.69
2019-06-20T00:57:41.564Z,22.73
2019-06-20T00:58:45.753Z,22.74
2019-06-20T00:59:49.356Z,22.70
2019-06-20T01:00:53.527Z,22.57
2019-06-20T01:01:57.135Z,22.64
2019-06-20T01:03:01.243Z,22.59
2019-06-20T01:04:04.825Z,22.61
2019-06-20T01:05:09.263Z,22.59
2019-06-20T01:06:12.749Z,22.58
2019-06-20T01:07:16.806Z,22.52
2019-06-20T01:08:20.226Z,22.43
2019-06-20T01:09:24.328Z,22.23
2019-06-20T01:10:27.878Z,22.16
2019-06-20T01:11:32.101Z,22.06
2019-06-20T01:12:35.704Z,22.01
2019-06-20T01:13:39.818Z,22.08
2019-06-20T01:14:43.274Z,22.06
2019-06-20T01:15:49.323Z,22.02
2019-06-20T01:16:52.966Z,21.87
2019-06-20T01:17:57.088Z,22.03
2019-06-20T01:19:00.728Z,22.17
2019-06-20T01:20:06.845Z,22.22
2019-06-20T01:21:10.467Z,22.19
2019-06-20T01:22:14.502Z,22.32
2019-06-20T01:23:18.018Z,22.41
2019-06-20T01:24:22.150Z,22.42
2019-06-20T01:25:39.633Z,22.46
2019-06-20T01:26:43.733Z,22.50
2019-06-20T01:27:47.267Z,22.26
2019-06-20T01:28:51.311Z,22.30
2019-06-20T01:29:54.814Z,22.36
2019-06-20T01:30:59.064Z,22.45
2019-06-20T01:32:02.663Z,22.48
2019-06-20T01:33:07.260Z,22.48
2019-06-20T01:34:10.760Z,22.43
2019-06-20T01:35:15.131Z,22.41
2019-06-20T01:36:18.664Z,22.42
2019-06-20T01:37:22.696Z,22.49
2019-06-20T01:38:26.224Z,22.44
2019-06-20T01:39:30.271Z,22.43
2019-06-20T01:40:33.816Z,22.34
2019-06-20T01:41:37.949Z,22.28
2019-06-20T01:42:41.459Z,22.33
2019-06-20T01:43:50.705Z,22.41
2019-06-20T01:44:50.653Z,22.37
2019-06-20T01:45:54.852Z,22.38
2019-06-20T01:46:58.390Z,22.34
2019-06-20T01:48:02.518Z,22.47
2019-06-20T01:49:06.297Z,22.53
2019-06-20T01:50:10.509Z,22.47
2019-06-20T01:51:14.089Z,22.36
2019-06-20T01:52:18.163Z,22.16
2019-06-20T01:53:21.612Z,22.11
2019-06-20T01:54:25.709Z,22.00
2019-06-20T01:55:29.162Z,22.04
2019-06-20T01:56:33.272Z,22.12
2019-06-20T01:57:36.762Z,22.19
2019-06-20T01:58:40.862Z,22.23
2019-06-20T01:59:44.405Z,22.35
2019-06-20T02:00:51.145Z,22.46
2019-06-20T02:01:54.696Z,22.53
2019-06-20T02:02:58.910Z,22.61
2019-06-20T02:04:02.502Z,22.61
2019-06-20T02:05:08.273Z,22.66
2019-06-20T02:06:11.846Z,22.77
2019-06-20T02:07:16.025Z,22.84
2019-06-20T02:08:19.644Z,22.89
2019-06-20T02:09:23.812Z,22.90
2019-06-20T02:10:27.400Z,22.95
2019-06-20T02:11:31.443Z,22.97
2019-06-20T02:12:34.977Z,22.89
2019-06-20T02:13:39.099Z,22.84
2019-06-20T02:14:42.618Z,22.86
2019-06-20T02:15:48.299Z,22.87
2019-06-20T02:16:52.367Z,22.78
2019-06-20T02:17:56.492Z,22.81
2019-06-20T02:19:01.324Z,22.88
2019-06-20T02:20:07.291Z,22.98
2019-06-20T02:21:10.855Z,23.00
2019-06-20T02:22:14.867Z,22.92
2019-06-20T02:23:18.624Z,22.88
2019-06-20T02:24:22.657Z,22.83
2019-06-20T02:25:26.178Z,22.89
2019-06-20T02:26:30.352Z,22.89
2019-06-20T02:27:33.812Z,22.88
2019-06-20T02:28:38.026Z,22.87
2019-06-20T02:29:41.465Z,22.80
2019-06-20T02:30:45.698Z,22.81
2019-06-20T02:31:49.151Z,22.79
2019-06-20T02:32:53.367Z,22.79
2019-06-20T02:33:56.873Z,22.65
2019-06-20T02:35:01.035Z,22.65
2019-06-20T02:36:04.574Z,22.70
2019-06-20T02:37:08.728Z,22.70
2019-06-20T02:38:12.197Z,22.75
2019-06-20T02:39:16.359Z,22.76
2019-06-20T02:40:19.929Z,22.66
2019-06-20T02:41:24.136Z,22.64
2019-06-20T02:42:27.695Z,22.62
2019-06-20T02:43:31.837Z,22.62
2019-06-20T02:44:35.380Z,22.60
2019-06-20T02:45:39.581Z,22.57
2019-06-20T02:46:43.145Z,22.53
2019-06-20T02:47:47.326Z,22.50
2019-06-20T02:48:50.842Z,22.48
2019-06-20T02:49:55.990Z,22.43
2019-06-20T02:50:59.705Z,22.44
2019-06-20T02:52:04.381Z,22.50
2019-06-20T02:53:07.987Z,22.54
2019-06-20T02:54:12.081Z,22.57
2019-06-20T02:55:15.706Z,22.65
2019-06-20T02:56:19.936Z,22.63
2019-06-20T02:57:23.393Z,22.55
2019-06-20T02:58:27.417Z,22.56
2019-06-20T02:59:30.943Z,22.57
2019-06-20T03:00:53.121Z,22.58
2019-06-20T03:01:56.586Z,22.42
2019-06-20T03:03:00.692Z,22.38
2019-06-20T03:04:04.203Z,22.35
2019-06-20T03:05:09.840Z,22.36
2019-06-20T03:06:13.309Z,22.31
2019-06-20T03:07:17.412Z,22.29
2019-06-20T03:08:21.000Z,22.35
2019-06-20T03:09:25.021Z,22.45
2019-06-20T03:10:28.531Z,22.44
2019-06-20T03:11:32.649Z,22.51
2019-06-20T03:12:36.208Z,22.56
2019-06-20T03:13:40.357Z,22.57
2019-06-20T03:14:45.674Z,22.50
2019-06-20T03:15:52.389Z,22.39
2019-06-20T03:16:56.337Z,22.13
2019-06-20T03:18:00.366Z,22.09
2019-06-20T03:19:04.253Z,22.14
2019-06-20T03:20:11.375Z,22.23
2019-06-20T03:21:14.818Z,22.24
2019-06-20T03:22:18.964Z,22.27
2019-06-20T03:23:22.585Z,22.39
2019-06-20T03:24:26.665Z,22.46
2019-06-20T03:25:30.294Z,22.44
2019-06-20T03:26:34.404Z,22.47
2019-06-20T03:27:37.925Z,22.47
2019-06-20T03:28:42.048Z,22.52
2019-06-20T03:29:45.495Z,22.53
2019-06-20T03:30:49.686Z,22.53
2019-06-20T03:31:53.222Z,22.50
2019-06-20T03:32:57.272Z,22.44
2019-06-20T03:34:00.888Z,22.35
2019-06-20T03:35:06.084Z,22.33
2019-06-20T03:36:09.676Z,22.35
2019-06-20T03:37:13.757Z,22.33
2019-06-20T03:38:17.273Z,22.33
2019-06-20T03:39:21.382Z,22.35
2019-06-20T03:40:24.903Z,22.36
2019-06-20T03:41:28.939Z,22.32
2019-06-20T03:42:32.417Z,22.10
2019-06-20T03:43:36.515Z,22.11
2019-06-20T03:44:40.045Z,22.10
2019-06-20T03:45:44.098Z,22.11
2019-06-20T03:46:47.544Z,22.06
2019-06-20T03:47:51.599Z,22.01
2019-06-20T03:48:55.049Z,22.02
2019-06-20T03:49:59.157Z,22.02
2019-06-20T03:51:02.751Z,22.05
2019-06-20T03:52:06.822Z,22.04
2019-06-20T03:53:10.405Z,22.08
2019-06-20T03:54:14.430Z,22.16
2019-06-20T03:55:18.024Z,22.17
2019-06-20T03:56:22.063Z,22.20
2019-06-20T03:57:25.786Z,22.16
2019-06-20T03:58:30.038Z,22.13
2019-06-20T03:59:33.576Z,22.00
2019-06-20T04:00:37.776Z,22.04
2019-06-20T04:01:41.370Z,22.12
2019-06-20T04:02:45.437Z,22.09
2019-06-20T04:03:49.016Z,22.11
2019-06-20T04:04:53.080Z,22.12
2019-06-20T04:05:56.531Z,22.06
2019-06-20T04:07:00.707Z,22.15
2019-06-20T04:08:04.527Z,22.19
2019-06-20T04:09:08.570Z,22.19
2019-06-20T04:10:12.169Z,22.23
2019-06-20T04:11:16.346Z,22.31
2019-06-20T04:12:19.870Z,22.36
2019-06-20T04:13:23.934Z,22.24
2019-06-20T04:14:27.510Z,22.22
2019-06-20T04:15:31.626Z,22.27
2019-06-20T04:16:35.152Z,22.21
2019-06-20T04:17:40.151Z,22.23
2019-06-20T04:18:43.687Z,22.20
2019-06-20T04:19:47.724Z,22.12
2019-06-20T04:20:51.310Z,22.18
2019-06-20T04:21:55.486Z,22.26
2019-06-20T04:22:59.031Z,22.28
2019-06-20T04:24:03.151Z,22.30
2019-06-20T04:25:07.335Z,22.25
2019-06-20T04:26:11.515Z,22.25
2019-06-20T04:27:14.980Z,22.31
2019-06-20T04:28:19.283Z,22.36
2019-06-20T04:29:22.796Z,22.27
2019-06-20T04:30:26.821Z,22.19
2019-06-20T04:31:30.275Z,22.19
2019-06-20T04:32:34.340Z,22.18
2019-06-20T04:33:37.930Z,22.18
2019-06-20T04:34:42.052Z,22.18
2019-06-20T04:35:45.646Z,22.16
2019-06-20T04:36:49.732Z,22.04
2019-06-20T04:37:53.233Z,22.04
2019-06-20T04:38:57.316Z,22.11
2019-06-20T04:40:00.899Z,22.14
2019-06-20T04:41:05.165Z,22.22
2019-06-20T04:42:08.660Z,22.31
2019-06-20T04:43:12.754Z,22.29
2019-06-20T04:44:16.354Z,22.23
2019-06-20T04:45:34.194Z,22.21
2019-06-20T04:46:34.220Z,22.23
2019-06-20T04:47:38.332Z,22.19
2019-06-20T04:48:42.680Z,22.00
2019-06-20T04:49:46.712Z,21.95
2019-06-20T04:50:50.289Z,21.91
2019-06-20T04:51:54.328Z,21.96
2019-06-20T04:52:57.768Z,21.90
2019-06-20T04:54:01.842Z,21.86
2019-06-20T04:55:05.964Z,21.73
2019-06-20T04:56:10.002Z,21.81
2019-06-20T04:57:13.496Z,21.93
2019-06-20T04:58:17.587Z,22.06
2019-06-20T04:59:21.057Z,22.01
2019-06-20T05:00:25.438Z,22.01
2019-06-20T05:01:28.962Z,22.02
2019-06-20T05:02:35.665Z,22.00
2019-06-20T05:03:39.138Z,21.86
2019-06-20T05:04:43.240Z,21.85
2019-06-20T05:05:46.743Z,21.69
2019-06-20T05:06:53.828Z,21.64
2019-06-20T05:07:57.533Z,21.67
2019-06-20T05:09:01.589Z,21.66
2019-06-20T05:10:08.013Z,21.77
2019-06-20T05:11:12.127Z,21.80
2019-06-20T05:12:15.758Z,21.79
2019-06-20T05:13:19.788Z,21.79
2019-06-20T05:14:23.360Z,21.86
2019-06-20T05:15:27.553Z,21.88
2019-06-20T05:16:31.069Z,21.91
2019-06-20T05:17:35.166Z,21.87
2019-06-20T05:18:39.338Z,21.73
2019-06-20T05:19:43.371Z,21.74
2019-06-20T05:20:46.963Z,21.71
2019-06-20T05:21:50.996Z,21.68
2019-06-20T05:22:54.438Z,21.45
2019-06-20T05:23:58.556Z,21.46
2019-06-20T05:25:02.021Z,21.42
2019-06-20T05:26:06.115Z,21.50
2019-06-20T05:27:09.563Z,21.68
2019-06-20T05:28:13.676Z,21.74
2019-06-20T05:29:17.202Z,21.82
2019-06-20T05:30:22.744Z,21.87
2019-06-20T05:31:26.275Z,21.90
2019-06-20T05:32:30.394Z,21.91
2019-06-20T05:33:33.912Z,21.94
2019-06-20T05:34:38.049Z,21.94
2019-06-20T05:35:42.462Z,21.89
2019-06-20T05:36:46.514Z,21.86
2019-06-20T05:37:49.957Z,21.81
2019-06-20T05:38:54.011Z,21.71
2019-06-20T05:39:57.569Z,21.77
2019-06-20T05:41:01.655Z,21.85
2019-06-20T05:42:05.342Z,21.84
2019-06-20T05:43:09.450Z,21.73
2019-06-20T05:44:12.989Z,21.72
2019-06-20T05:45:17.370Z,21.64
2019-06-20T05:46:20.835Z,21.70
2019-06-20T05:47:24.905Z,21.77
2019-06-20T05:48:28.352Z,21.83
2019-06-20T05:49:33.816Z,21.86
2019-06-20T05:50:37.431Z,21.86
2019-06-20T05:51:41.770Z,21.91
2019-06-20T05:52:45.303Z,21.92
2019-06-20T05:53:49.348Z,21.96
2019-06-20T05:54:52.881Z,22.00
2019-06-20T05:55:56.938Z,22.00
2019-06-20T05:57:03.379Z,22.03
2019-06-20T05:58:06.581Z,22.05
2019-06-20T05:59:10.143Z,22.06
2019-06-20T06:00:14.816Z,22.04
2019-06-20T06:01:18.340Z,21.80
2019-06-20T06:02:22.381Z,21.53
2019-06-20T06:03:25.834Z,21.46
2019-06-20T06:04:30.042Z,21.59
2019-06-20T06:05:33.711Z,21.63
2019-06-20T06:06:37.970Z,21.60
2019-06-20T06:07:41.702Z,21.73
2019-06-20T06:08:46.095Z,21.77
2019-06-20T06:09:49.866Z,21.48
2019-06-20T06:10:54.039Z,21.50
2019-06-20T06:11:57.579Z,21.67
2019-06-20T06:13:01.736Z,21.61
2019-06-20T06:14:05.514Z,21.74
2019-06-20T06:15:10.356Z,21.77
2019-06-20T06:16:25.588Z,21.87
2019-06-20T06:17:19.890Z,21.85
2019-06-20T06:18:23.545Z,21.91
2019-06-20T06:19:27.929Z,22.04
2019-06-20T06:20:31.590Z,22.10
2019-06-20T06:21:35.817Z,22.13
2019-06-20T06:22:39.593Z,22.14
2019-06-20T06:23:43.930Z,22.11
2019-06-20T06:24:47.353Z,22.01
2019-06-20T06:25:51.528Z,21.97
2019-06-20T06:26:59.597Z,22.03
2019-06-20T06:28:01.050Z,22.04
2019-06-20T06:29:04.802Z,22.01
2019-06-20T06:30:10.109Z,21.95
2019-06-20T06:31:13.647Z,21.99
2019-06-20T06:32:20.102Z,21.91
2019-06-20T06:33:22.896Z,22.00
2019-06-20T06:34:26.991Z,22.08
2019-06-20T06:35:30.633Z,22.20
2019-06-20T06:36:34.808Z,22.24
2019-06-20T06:37:38.347Z,22.26
2019-06-20T06:38:42.737Z,22.29
2019-06-20T06:39:46.376Z,22.40
2019-06-20T06:40:50.624Z,22.49
2019-06-20T06:41:54.264Z,22.52
2019-06-20T06:42:58.482Z,22.49
2019-06-20T06:44:02.155Z,22.51
2019-06-20T06:45:10.475Z,22.45
2019-06-20T06:46:15.572Z,22.32
2019-06-20T06:47:19.722Z,22.36
2019-06-20T06:48:23.310Z,22.41
2019-06-20T06:49:27.660Z,22.29
2019-06-20T06:50:31.287Z,22.27
2019-06-20T06:51:38.184Z,22.42
2019-06-20T06:52:41.072Z,22.56
2019-06-20T06:53:45.227Z,22.60
2019-06-20T06:54:49.017Z,22.65
2019-06-20T06:55:53.208Z,22.76
2019-06-20T06:56:56.773Z,22.85
2019-06-20T06:58:01.377Z,22.85
2019-06-20T06:59:04.962Z,22.85
2019-06-20T07:00:12.270Z,22.91
2019-06-20T07:01:16.101Z,22.90
2019-06-20T07:02:20.360Z,22.99
2019-06-20T07:03:23.935Z,23.07
2019-06-20T07:04:28.040Z,23.19
2019-06-20T07:05:31.647Z,23.27
2019-06-20T07:06:35.776Z,23.29
2019-06-20T07:07:39.364Z,23.25
2019-06-20T07:08:43.450Z,23.17
2019-06-20T07:09:47.042Z,23.16
2019-06-20T07:10:51.430Z,23.24
2019-06-20T07:11:55.056Z,23.24
2019-06-20T07:12:59.325Z,23.21
2019-06-20T07:14:02.830Z,23.08
2019-06-20T07:15:11.935Z,23.11
2019-06-20T07:16:15.450Z,23.22
2019-06-20T07:17:19.902Z,23.13
2019-06-20T07:18:23.602Z,23.14
2019-06-20T07:19:27.776Z,23.10
2019-06-20T07:20:31.414Z,23.05
2019-06-20T07:21:35.646Z,23.02
2019-06-20T07:22:39.156Z,22.89
2019-06-20T07:23:43.241Z,22.98
2019-06-20T07:24:46.855Z,23.09
2019-06-20T07:25:51.310Z,23.10
2019-06-20T07:26:54.856Z,23.02
2019-06-20T07:27:59.107Z,23.15
2019-06-20T07:29:03.116Z,23.22
2019-06-20T07:30:09.805Z,23.26
2019-06-20T07:31:13.345Z,23.21
2019-06-20T07:32:17.463Z,23.19
2019-06-20T07:33:21.057Z,23.20
2019-06-20T07:34:25.208Z,23.15
2019-06-20T07:35:28.892Z,23.12
2019-06-20T07:36:33.096Z,23.17
2019-06-20T07:37:36.601Z,23.14
2019-06-20T07:38:40.636Z,23.21
2019-06-20T07:39:44.176Z,23.26
2019-06-20T07:40:48.298Z,23.29
2019-06-20T07:41:51.861Z,23.36
2019-06-20T07:42:56.225Z,23.55
2019-06-20T07:43:59.762Z,23.64
2019-06-20T07:45:06.410Z,23.60
2019-06-20T07:46:10.796Z,23.65
2019-06-20T07:47:17.987Z,23.70
2019-06-20T07:48:20.093Z,23.62
2019-06-20T07:49:24.293Z,23.72
2019-06-20T07:50:27.831Z,23.84
2019-06-20T07:51:31.987Z,23.80
2019-06-20T07:52:35.548Z,23.84
2019-06-20T07:53:39.716Z,23.87
2019-06-20T07:54:43.302Z,24.00
2019-06-20T07:55:47.442Z,24.05
2019-06-20T07:56:53.707Z,24.12
2019-06-20T07:57:57.276Z,24.14
2019-06-20T07:59:00.789Z,24.06
2019-06-20T08:00:10.030Z,24.09
2019-06-20T08:01:13.645Z,24.16
2019-06-20T08:02:17.888Z,24.19
2019-06-20T08:03:21.526Z,24.26
2019-06-20T08:04:25.886Z,24.32
2019-06-20T08:05:29.458Z,24.22
2019-06-20T08:06:33.619Z,24.15
2019-06-20T08:07:37.279Z,24.17
2019-06-20T08:08:41.562Z,24.23
2019-06-20T08:09:45.628Z,24.27
2019-06-20T08:10:49.934Z,24.27
2019-06-20T08:11:53.502Z,24.31
2019-06-20T08:12:57.645Z,24.40
2019-06-20T08:14:01.111Z,24.49
2019-06-20T08:15:15.150Z,24.51
2019-06-20T08:16:12.725Z,24.57
2019-06-20T08:17:34.040Z,24.64
2019-06-20T08:18:22.154Z,24.66
2019-06-20T08:19:26.283Z,24.76
2019-06-20T08:20:30.353Z,24.77
2019-06-20T08:21:34.566Z,24.81
2019-06-20T08:22:38.072Z,24.81
2019-06-20T08:23:42.192Z,24.75
2019-06-20T08:24:46.129Z,24.68
2019-06-20T08:25:50.203Z,24.77
2019-06-20T08:26:53.740Z,24.79
2019-06-20T08:27:59.457Z,24.74
2019-06-20T08:29:16.128Z,24.63
2019-06-20T08:30:09.168Z,24.49
2019-06-20T08:31:12.684Z,24.40
2019-06-20T08:32:16.847Z,24.42
2019-06-20T08:33:20.601Z,24.45
2019-06-20T08:34:24.686Z,24.52
2019-06-20T08:35:30.536Z,24.55
2019-06-20T08:36:34.699Z,24.54
2019-06-20T08:37:38.202Z,24.48
2019-06-20T08:38:42.368Z,24.50
2019-06-20T08:39:45.863Z,24.52
2019-06-20T08:40:50.048Z,24.52
2019-06-20T08:41:53.581Z,24.35
2019-06-20T08:42:59.735Z,24.38
2019-06-20T08:44:03.942Z,24.48
2019-06-20T08:45:09.463Z,24.48
2019-06-20T08:46:14.940Z,24.48
2019-06-20T08:47:19.054Z,24.55
2019-06-20T08:48:22.666Z,24.61
2019-06-20T08:49:26.751Z,24.61
2019-06-20T08:50:30.379Z,24.55
2019-06-20T08:51:34.628Z,24.50
2019-06-20T08:52:38.168Z,24.46
2019-06-20T08:53:42.313Z,24.45
2019-06-20T08:54:45.904Z,24.38
2019-06-20T08:55:50.094Z,24.37
2019-06-20T08:56:55.607Z,24.15
2019-06-20T08:58:01.329Z,24.06
2019-06-20T08:59:04.987Z,24.13
2019-06-20T09:00:10.869Z,24.23
2019-06-20T09:01:14.395Z,24.18
2019-06-20T09:02:18.433Z,24.25
2019-06-20T09:03:22.018Z,24.34
2019-06-20T09:04:26.209Z,24.30
2019-06-20T09:05:30.894Z,24.33
2019-06-20T09:06:35.432Z,24.23
2019-06-20T09:07:41.730Z,24.18
2019-06-20T09:08:44.965Z,24.24
2019-06-20T09:09:48.636Z,24.34
2019-06-20T09:10:54.175Z,24.32
2019-06-20T09:11:58.578Z,24.35
2019-06-20T09:13:03.793Z,24.39
2019-06-20T09:14:07.593Z,24.45
2019-06-20T09:15:11.883Z,24.54
2019-06-20T09:16:24.440Z,24.55
2019-06-20T09:17:23.650Z,24.51
2019-06-20T09:18:27.217Z,24.57
2019-06-20T09:19:31.329Z,24.52
2019-06-20T09:20:35.051Z,24.43
2019-06-20T09:21:39.219Z,24.43
2019-06-20T09:22:42.929Z,24.42
2019-06-20T09:23:46.967Z,24.47
2019-06-20T09:24:52.035Z,24.47
2019-06-20T09:25:57.558Z,24.50
2019-06-20T09:27:04.323Z,24.61
2019-06-20T09:28:08.915Z,24.63
2019-06-20T09:29:12.610Z,24.65
2019-06-20T09:30:17.214Z,24.63
2019-06-20T09:31:20.715Z,24.70
2019-06-20T09:32:24.776Z,24.75
2019-06-20T09:33:28.388Z,24.81
2019-06-20T09:34:32.458Z,24.93
2019-06-20T09:35:36.211Z,24.94
2019-06-20T09:36:40.466Z,24.95
2019-06-20T09:37:44.096Z,24.79
2019-06-20T09:38:48.297Z,24.54
2019-06-20T09:39:54.818Z,24.24
2019-06-20T09:40:59.249Z,23.16
2019-06-20T09:42:03.445Z,24.58
2019-06-20T09:43:07.846Z,24.72
2019-06-20T09:44:11.369Z,24.89
2019-06-20T09:45:17.118Z,25.01
2019-06-20T09:46:22.088Z,25.12
2019-06-20T09:47:26.174Z,25.19
2019-06-20T09:48:29.687Z,25.31
2019-06-20T09:49:33.791Z,25.34
2019-06-20T09:50:37.421Z,25.21
2019-06-20T09:51:41.495Z,25.10
2019-06-20T09:52:44.973Z,25.11
2019-06-20T09:53:49.895Z,25.18
2019-06-20T09:54:53.924Z,25.27
2019-06-20T09:55:57.999Z,25.35
2019-06-20T09:57:01.559Z,25.36
2019-06-20T09:58:06.194Z,25.31
2019-06-20T09:59:26.656Z,25.17
2019-06-20T10:00:26.933Z,25.18
2019-06-20T10:01:30.434Z,25.12
2019-06-20T10:02:34.566Z,25.16
2019-06-20T10:03:38.239Z,25.22
2019-06-20T10:04:42.545Z,25.20
2019-06-20T10:05:47.666Z,25.09
2019-06-20T10:06:52.358Z,25.09
2019-06-20T10:07:56.872Z,25.11
2019-06-20T10:09:01.322Z,25.06
2019-06-20T10:10:10.111Z,25.13
2019-06-20T10:11:14.378Z,25.17
2019-06-20T10:12:18.681Z,25.22
2019-06-20T10:13:23.277Z,25.23
2019-06-20T10:14:27.412Z,25.21
2019-06-20T10:15:36.224Z,25.09
2019-06-20T10:16:45.665Z,25.14
2019-06-20T10:17:47.379Z,25.28
2019-06-20T10:18:52.136Z,25.28
2019-06-20T10:19:56.380Z,25.23
2019-06-20T10:21:00.312Z,25.23
2019-06-20T10:22:08.209Z,25.34
2019-06-20T10:23:11.939Z,25.22
2019-06-20T10:24:17.115Z,25.05
2019-06-20T10:25:21.032Z,24.90
2019-06-20T10:26:25.798Z,24.87
2019-06-20T10:27:29.488Z,24.87
2019-06-20T10:28:38.087Z,24.88
2019-06-20T10:29:44.424Z,24.94
2019-06-20T10:30:51.066Z,25.04
2019-06-20T10:31:55.347Z,25.09
2019-06-20T10:33:02.035Z,25.11
2019-06-20T10:34:07.793Z,25.13
2019-06-20T10:35:13.014Z,25.08
2019-06-20T10:36:18.632Z,25.00
2019-06-20T10:37:23.209Z,25.00
2019-06-20T10:38:27.328Z,25.00
2019-06-20T10:39:32.407Z,24.95
2019-06-20T10:40:36.168Z,24.82
2019-06-20T10:41:40.809Z,24.82
2019-06-20T10:42:46.199Z,24.83
2019-06-20T10:43:51.745Z,24.81
2019-06-20T10:44:56.258Z,24.68
2019-06-20T10:46:01.954Z,24.62
2019-06-20T10:47:06.007Z,24.73
2019-06-20T10:48:10.643Z,24.81
2019-06-20T10:49:14.336Z,24.76
2019-06-20T10:50:19.368Z,24.75
2019-06-20T10:51:33.407Z,24.73
2019-06-20T10:52:37.795Z,24.62
2019-06-20T10:53:44.009Z,24.60
2019-06-20T10:54:47.723Z,24.58
2019-06-20T10:55:51.337Z,24.59
2019-06-20T10:56:57.132Z,24.56
2019-06-20T10:58:04.966Z,24.61
2019-06-20T10:59:14.220Z,24.67
2019-06-20T11:00:30.219Z,24.67
2019-06-20T11:01:31.844Z,24.64
2019-06-20T11:02:36.277Z,24.71
2019-06-20T11:03:43.826Z,24.68
2019-06-20T11:04:51.537Z,24.73
2019-06-20T11:05:59.817Z,24.59
2019-06-20T11:07:04.156Z,24.54
2019-06-20T11:08:09.923Z,24.67
2019-06-20T11:09:13.833Z,24.77
2019-06-20T11:10:18.371Z,24.80
2019-06-20T11:11:25.912Z,24.82
2019-06-20T11:12:42.628Z,24.93
2019-06-20T11:13:39.529Z,25.02
2019-06-20T11:14:46.213Z,25.11
2019-06-20T11:15:53.858Z,25.17
2019-06-20T11:17:00.118Z,25.20
2019-06-20T11:18:08.790Z,25.33
2019-06-20T11:19:12.569Z,25.42
2019-06-20T11:20:16.937Z,25.54
2019-06-20T11:21:21.120Z,25.66
2019-06-20T11:22:24.736Z,25.72
2019-06-20T11:23:29.525Z,25.86
2019-06-20T11:24:33.318Z,25.94
2019-06-20T11:25:41.997Z,26.06
2019-06-20T11:26:46.028Z,26.20
2019-06-20T11:27:50.274Z,26.35
2019-06-20T11:28:53.889Z,26.46
2019-06-20T11:29:58.495Z,26.59
2019-06-20T11:31:02.057Z,26.70
2019-06-20T11:32:06.683Z,26.72
2019-06-20T11:33:10.338Z,26.81
2019-06-20T11:34:14.468Z,26.94
2019-06-20T11:35:18.012Z,27.09
2019-06-20T11:36:22.171Z,27.19
2019-06-20T11:37:25.642Z,27.28
2019-06-20T11:38:29.734Z,27.36
2019-06-20T11:39:34.699Z,27.38
2019-06-20T11:40:39.681Z,27.37
2019-06-20T11:41:43.689Z,27.30
2019-06-20T11:42:47.885Z,27.25
2019-06-20T11:43:51.332Z,27.20
2019-06-20T11:44:55.125Z,27.25
2019-06-20T11:45:58.547Z,27.27
2019-06-20T11:47:02.656Z,27.36
2019-06-20T11:48:06.281Z,27.49
2019-06-20T11:49:10.375Z,27.52
2019-06-20T11:50:14.277Z,27.63
2019-06-20T11:51:18.285Z,27.64
2019-06-20T11:52:21.818Z,27.61
2019-06-20T11:53:25.861Z,27.68
2019-06-20T11:54:29.439Z,27.73
2019-06-20T11:55:33.534Z,27.78
2019-06-20T11:56:37.077Z,27.79
2019-06-20T11:57:41.127Z,27.82
2019-06-20T11:58:44.632Z,27.77
2019-06-20T11:59:48.737Z,27.72
2019-06-20T12:01:03.160Z,27.87
2019-06-20T12:01:57.991Z,28.01
2019-06-20T12:03:01.516Z,27.82
2019-06-20T12:04:05.668Z,27.82
2019-06-20T12:05:11.009Z,27.93
2019-06-20T12:06:15.175Z,28.16
2019-06-20T12:07:18.760Z,28.43
2019-06-20T12:08:22.934Z,28.85
2019-06-20T12:09:26.466Z,29.01
2019-06-20T12:10:30.554Z,29.09
2019-06-20T12:11:34.062Z,29.09
2019-06-20T12:12:39.667Z,29.17
2019-06-20T12:13:44.490Z,29.16
2019-06-20T12:14:48.743Z,29.16
2019-06-20T12:15:52.338Z,29.17
2019-06-20T12:16:56.574Z,29.32
2019-06-20T12:18:00.090Z,29.73
2019-06-20T12:19:04.153Z,29.81
2019-06-20T12:20:08.340Z,29.85
2019-06-20T12:21:12.463Z,29.77
2019-06-20T12:22:15.887Z,29.68
2019-06-20T12:23:20.079Z,29.45
2019-06-20T12:24:23.550Z,29.45
2019-06-20T12:25:27.924Z,29.11
2019-06-20T12:26:31.375Z,29.11
2019-06-20T12:27:35.462Z,28.70
2019-06-20T12:28:39.635Z,28.70
2019-06-20T12:29:44.863Z,28.46
2019-06-20T12:30:48.748Z,28.46
2019-06-20T12:31:52.906Z,28.31
2019-06-20T12:32:56.935Z,28.31
2019-06-20T12:34:00.943Z,28.26
2019-06-20T12:35:05.768Z,28.21
2019-06-20T12:36:10.163Z,28.12
2019-06-20T12:37:13.760Z,28.12
2019-06-20T12:38:17.790Z,28.16
2019-06-20T12:39:21.298Z,28.11
2019-06-20T12:40:26.587Z,27.89
2019-06-20T12:41:30.052Z,27.89
2019-06-20T12:42:34.068Z,27.77
2019-06-20T12:43:39.060Z,27.77
2019-06-20T12:44:44.164Z,27.79
2019-06-20T12:45:47.885Z,27.62
2019-06-20T12:46:52.049Z,27.53
2019-06-20T12:47:55.606Z,27.46
2019-06-20T12:48:59.632Z,27.46
2019-06-20T12:50:04.069Z,27.42
2019-06-20T12:51:08.156Z,27.40
2019-06-20T12:52:11.617Z,27.34
2019-06-20T12:53:15.728Z,27.25
2019-06-20T12:54:19.195Z,27.13
2019-06-20T12:55:23.316Z,27.06
2019-06-20T12:56:26.761Z,27.07
2019-06-20T12:57:30.955Z,26.97
2019-06-20T12:58:34.461Z,26.97
2019-06-20T12:59:39.461Z,26.87
2019-06-20T13:00:45.344Z,26.84
2019-06-20T13:01:51.058Z,26.83
2019-06-20T13:02:54.639Z,26.86
2019-06-20T13:03:58.683Z,26.86
2019-06-20T13:05:02.197Z,26.78
2019-06-20T13:06:06.497Z,26.74
2019-06-20T13:07:10.057Z,26.70
2019-06-20T13:08:14.217Z,26.59
2019-06-20T13:09:17.684Z,26.60
2019-06-20T13:10:22.011Z,26.55
2019-06-20T13:11:25.514Z,26.58
2019-06-20T13:12:29.585Z,26.49
2019-06-20T13:13:33.044Z,26.36
2019-06-20T13:14:39.203Z,26.36
2019-06-20T13:15:42.525Z,26.32
2019-06-20T13:16:48.197Z,26.24
2019-06-20T13:17:51.866Z,26.17
2019-06-20T13:18:55.948Z,26.16
2019-06-20T13:19:59.487Z,26.07
2019-06-20T13:21:03.636Z,25.93
2019-06-20T13:22:07.161Z,25.89
2019-06-20T13:23:11.194Z,25.95
2019-06-20T13:24:14.774Z,25.97
2019-06-20T13:25:18.981Z,25.96
2019-06-20T13:26:22.517Z,25.96
2019-06-20T13:27:26.644Z,25.94
2019-06-20T13:28:30.094Z,25.92
2019-06-20T13:29:34.111Z,25.94
2019-06-20T13:30:38.525Z,25.95
2019-06-20T13:32:00.559Z,25.80
2019-06-20T13:32:49.009Z,25.73
2019-06-20T13:33:53.028Z,25.70
2019-06-20T13:34:56.665Z,25.75
2019-06-20T13:36:00.633Z,25.76
2019-06-20T13:37:04.151Z,25.71
2019-06-20T13:38:08.371Z,25.61
2019-06-20T13:39:11.885Z,25.54
2019-06-20T13:40:16.244Z,25.48
2019-06-20T13:41:19.959Z,25.36
2019-06-20T13:42:24.052Z,25.27
2019-06-20T13:43:27.499Z,25.18
2019-06-20T13:44:31.590Z,25.10
2019-06-20T13:45:35.056Z,25.13
2019-06-20T13:46:39.996Z,25.15
2019-06-20T13:47:45.752Z,25.14